Time;durP1;ratioP1;P1;durP2;ratioP2;P2;SDS_P1;SDS_P2;PMS_P1;PMS_P2;Temp;Humidity;BMP_temperature;BMP_pressure;BME280_temperature;BME280_humidity;BME280_pressure;Samples;Min_cycle;Max_cycle;Signal;HPM_P1;HPM_P2
2022/05/16 00:00:52;;;;;;;4.07;1.97;;;;;;;;;;6178895;23;20176;-85
2022/05/16 00:03:21;;;;;;;6.40;1.70;;;;;;;;;;6155139;23;20192;-85
2022/05/16 00:05:51;;;;;;;7.63;3.17;;;;;;;;;;6155034;23;20175;-85
2022/05/16 00:08:19;;;;;;;4.83;2.00;;;;;;;;;;6153581;23;20180;-85
2022/05/16 00:10:48;;;;;;;1.70;1.60;;;;;;;;;;6153584;23;20177;-85
2022/05/16 00:13:16;;;;;;;1.53;1.43;;;;;;;;;;6155133;23;20178;-85
2022/05/16 00:15:45;;;;;;;4.23;1.70;;;;;;;;;;6153830;23;20197;-85
2022/05/16 00:18:13;;;;;;;3.53;1.17;;;;;;;;;;6153590;23;20176;-85
2022/05/16 00:20:42;;;;;;;6.37;3.03;;;;;;;;;;6153822;23;20176;-85
2022/05/16 00:23:11;;;;;;;1.97;1.77;;;;;;;;;;6153855;23;20190;-85
2022/05/16 00:25:40;;;;;;;3.40;2.23;;;;;;;;;;6154556;23;20184;-85
2022/05/16 00:28:11;;;;;;;8.60;2.40;;;;;;;;;;6155619;23;20183;-85
2022/05/16 00:30:40;;;;;;;6.17;2.33;;;;;;;;;;6157131;23;20183;-85
2022/05/16 00:33:08;;;;;;;6.00;3.67;;;;;;;;;;6155140;23;20176;-85
2022/05/16 00:35:37;;;;;;;5.70;1.53;;;;;;;;;;6180003;23;20199;-85
2022/05/16 00:38:05;;;;;;;3.17;2.00;;;;;;;;;;6155896;23;20179;-85
2022/05/16 00:40:35;;;;;;;3.50;1.87;;;;;;;;;;6156633;23;20172;-85
2022/05/16 00:43:04;;;;;;;1.20;1.10;;;;;;;;;;6156551;23;20219;-85
2022/05/16 00:45:33;;;;;;;7.33;6.60;;;;;;;;;;6155143;23;20247;-85
2022/05/16 00:48:02;;;;;;;1.50;0.80;;;;;;;;;;6156916;23;20181;-85
2022/05/16 00:50:32;;;;;;;3.10;1.10;;;;;;;;;;6155406;23;20219;-84
2022/05/16 00:53:00;;;;;;;0.90;0.90;;;;;;;;;;6180197;23;20187;-85
2022/05/16 00:55:31;;;;;;;2.43;2.00;;;;;;;;;;6154310;23;20263;-85
2022/05/16 00:58:03;;;;;;;1.73;1.53;;;;;;;;;;6155488;23;20178;-85
2022/05/16 01:00:32;;;;;;;2.37;1.60;;;;;;;;;;6155280;23;20243;-85
2022/05/16 01:05:48;;;;;;;2.13;1.93;;;;;;;;;;6155285;23;20223;-85
2022/05/16 01:08:18;;;;;;;4.37;2.90;;;;;;;;;;6156402;23;20168;-85
2022/05/16 01:10:46;;;;;;;8.47;2.13;;;;;;;;;;6156123;23;20182;-85
2022/05/16 01:13:16;;;;;;;4.60;2.40;;;;;;;;;;6156353;23;20172;-85
2022/05/16 01:15:46;;;;;;;5.50;1.57;;;;;;;;;;6154886;23;20188;-85
2022/05/16 01:18:15;;;;;;;1.97;1.50;;;;;;;;;;6155003;23;20181;-85
2022/05/16 01:20:51;;;;;;;1.77;1.67;;;;;;;;;;6154754;23;20172;-85
2022/05/16 01:23:22;;;;;;;2.47;2.37;;;;;;;;;;6154898;23;20226;-85
2022/05/16 01:25:51;;;;;;;5.37;1.60;;;;;;;;;;6179673;23;20175;-85
2022/05/16 01:28:21;;;;;;;3.93;2.37;;;;;;;;;;6155163;23;20180;-85
2022/05/16 01:30:50;;;;;;;3.33;2.27;;;;;;;;;;6155140;23;20251;-85
2022/05/16 01:33:20;;;;;;;5.00;2.17;;;;;;;;;;6179968;23;20214;-85
2022/05/16 01:35:48;;;;;;;5.20;1.60;;;;;;;;;;6154503;23;20203;-85
2022/05/16 01:38:22;;;;;;;3.27;2.53;;;;;;;;;;6155835;23;20183;-85
2022/05/16 01:40:52;;;;;;;2.07;1.30;;;;;;;;;;6155098;23;20179;-85
2022/05/16 01:43:22;;;;;;;6.23;2.30;;;;;;;;;;6154600;23;20184;-85
2022/05/16 01:45:50;;;;;;;26.97;2.43;;;;;;;;;;6155318;23;20172;-84
2022/05/16 01:48:19;;;;;;;4.77;1.97;;;;;;;;;;6156362;23;20235;-85
2022/05/16 01:50:48;;;;;;;5.77;1.60;;;;;;;;;;6154565;23;20202;-85
2022/05/16 01:53:17;;;;;;;1.80;1.70;;;;;;;;;;6155989;23;20176;-85
2022/05/16 01:55:45;;;;;;;1.50;1.20;;;;;;;;;;6154869;23;20176;-84
2022/05/16 01:58:15;;;;;;;5.80;3.57;;;;;;;;;;6154491;23;20183;-85
2022/05/16 02:00:44;;;;;;;0.87;0.87;;;;;;;;;;6154159;23;20198;-84
2022/05/16 02:03:12;;;;;;;2.43;2.03;;;;;;;;;;6154414;23;20207;-85
2022/05/16 02:05:42;;;;;;;7.03;1.67;;;;;;;;;;6154537;23;20175;-85
2022/05/16 02:08:11;;;;;;;2.47;1.83;;;;;;;;;;6179738;23;20237;-85
2022/05/16 02:10:40;;;;;;;4.80;1.90;;;;;;;;;;6154321;23;20180;-85
2022/05/16 02:13:09;;;;;;;2.20;1.60;;;;;;;;;;6154407;23;20176;-85
2022/05/16 02:15:40;;;;;;;6.87;1.63;;;;;;;;;;6155765;23;20176;-85
2022/05/16 02:18:09;;;;;;;1.70;1.20;;;;;;;;;;6154329;23;20179;-85
2022/05/16 02:20:38;;;;;;;4.77;1.53;;;;;;;;;;6154690;23;20176;-85
2022/05/16 02:25:53;;;;;;;3.40;1.73;;;;;;;;;;6178972;23;20184;-85
2022/05/16 02:28:22;;;;;;;14.43;2.53;;;;;;;;;;6154314;23;20308;-85
2022/05/16 02:30:53;;;;;;;1.40;1.30;;;;;;;;;;6155664;23;20171;-85
2022/05/16 02:33:23;;;;;;;7.27;2.20;;;;;;;;;;6154835;23;20221;-85
2022/05/16 02:35:51;;;;;;;7.13;1.67;;;;;;;;;;6153725;23;20211;-84
2022/05/16 02:38:20;;;;;;;4.63;2.53;;;;;;;;;;6154235;23;20187;-85
2022/05/16 02:40:49;;;;;;;2.57;1.07;;;;;;;;;;6154302;23;20184;-85
2022/05/16 02:43:17;;;;;;;1.23;1.13;;;;;;;;;;6155839;23;20178;-85
2022/05/16 02:45:46;;;;;;;29.37;2.80;;;;;;;;;;6154630;23;20199;-85
2022/05/16 02:48:16;;;;;;;3.03;1.50;;;;;;;;;;6153721;23;20215;-85
2022/05/16 02:50:44;;;;;;;4.33;1.73;;;;;;;;;;6154446;23;20186;-85
2022/05/16 02:53:13;;;;;;;0.40;0.40;;;;;;;;;;6155649;23;20198;-85
2022/05/16 02:55:41;;;;;;;0.87;0.87;;;;;;;;;;6154309;23;20199;-85
2022/05/16 02:58:10;;;;;;;4.43;2.20;;;;;;;;;;6153971;23;20198;-85
2022/05/16 03:00:38;;;;;;;13.33;2.40;;;;;;;;;;6154215;23;20270;-85
2022/05/16 03:03:06;;;;;;;1.17;1.07;;;;;;;;;;6154438;23;20182;-85
2022/05/16 03:05:36;;;;;;;2.00;1.60;;;;;;;;;;6178967;23;20179;-85
2022/05/16 03:08:05;;;;;;;8.30;1.93;;;;;;;;;;6154051;23;20181;-85
2022/05/16 03:10:33;;;;;;;7.13;2.97;;;;;;;;;;6153765;23;20190;-85
2022/05/16 03:13:02;;;;;;;0.90;0.90;;;;;;;;;;6154210;23;20263;-85
2022/05/16 03:15:30;;;;;;;3.17;1.57;;;;;;;;;;6154387;23;20176;-85
2022/05/16 03:17:59;;;;;;;5.83;2.50;;;;;;;;;;6154145;23;20203;-85
2022/05/16 03:20:27;;;;;;;2.40;2.20;;;;;;;;;;6154050;23;20179;-85
2022/05/16 03:22:57;;;;;;;2.13;2.03;;;;;;;;;;6155679;23;20186;-84
2022/05/16 03:25:25;;;;;;;2.00;1.73;;;;;;;;;;6154234;23;20183;-85
2022/05/16 03:27:54;;;;;;;10.27;9.27;;;;;;;;;;6154189;23;20179;-85
2022/05/16 03:30:22;;;;;;;0.93;0.93;;;;;;;;;;6153813;23;20190;-85
2022/05/16 03:32:51;;;;;;;1.13;1.13;;;;;;;;;;6153980;23;20172;-85
2022/05/16 03:35:19;;;;;;;1.67;1.57;;;;;;;;;;6155244;23;20203;-85
2022/05/16 03:37:48;;;;;;;2.07;1.37;;;;;;;;;;6154942;23;20230;-85
2022/05/16 03:43:05;;;;;;;1.57;1.47;;;;;;;;;;6155788;23;20218;-85
2022/05/16 03:45:33;;;;;;;3.17;3.00;;;;;;;;;;6129453;23;20183;-84
2022/05/16 03:48:02;;;;;;;0.57;0.57;;;;;;;;;;6155161;23;20178;-85
2022/05/16 03:50:30;;;;;;;7.03;3.27;;;;;;;;;;6129271;23;20180;-85
2022/05/16 03:52:59;;;;;;;5.60;2.10;;;;;;;;;;6154979;23;20168;-85
2022/05/16 03:55:31;;;;;;;0.97;0.97;;;;;;;;;;6154060;23;20179;-85
2022/05/16 03:58:00;;;;;;;3.77;1.90;;;;;;;;;;6129204;23;20203;-85
2022/05/16 04:00:28;;;;;;;5.93;3.47;;;;;;;;;;6154427;23;20180;-85
2022/05/16 04:02:57;;;;;;;2.57;1.70;;;;;;;;;;6157223;23;20175;-84
2022/05/16 04:05:25;;;;;;;3.87;2.57;;;;;;;;;;6131287;23;20190;-85
2022/05/16 04:07:54;;;;;;;1.50;1.43;;;;;;;;;;6156067;23;20251;-85
2022/05/16 04:10:23;;;;;;;9.97;2.50;;;;;;;;;;6156986;23;20195;-85
2022/05/16 04:12:54;;;;;;;2.30;2.10;;;;;;;;;;6131209;23;20190;-84
2022/05/16 04:15:23;;;;;;;5.77;2.97;;;;;;;;;;6130931;23;20182;-85
2022/05/16 04:17:51;;;;;;;1.57;1.47;;;;;;;;;;6131211;23;20205;-85
2022/05/16 04:20:21;;;;;;;0.60;0.60;;;;;;;;;;6130783;23;20183;-85
2022/05/16 04:22:49;;;;;;;2.40;1.40;;;;;;;;;;6130859;23;20262;-85
2022/05/16 04:25:19;;;;;;;2.40;2.23;;;;;;;;;;6131055;23;20175;-85
2022/05/16 04:27:55;;;;;;;3.63;2.13;;;;;;;;;;6131215;23;20210;-84
2022/05/16 04:30:25;;;;;;;2.63;1.90;;;;;;;;;;6130785;23;20266;-85
2022/05/16 04:32:53;;;;;;;2.63;2.27;;;;;;;;;;6156769;23;20171;-84
2022/05/16 04:35:22;;;;;;;8.47;3.40;;;;;;;;;;6155494;23;20291;-85
2022/05/16 04:37:50;;;;;;;11.07;2.37;;;;;;;;;;6156535;23;20188;-84
2022/05/16 04:40:19;;;;;;;8.93;1.90;;;;;;;;;;6130858;23;20179;-85
2022/05/16 04:42:46;;;;;;;9.70;3.17;;;;;;;;;;6130810;23;20183;-85
2022/05/16 04:45:18;;;;;;;4.57;4.10;;;;;;;;;;6155130;23;20174;-85
2022/05/16 04:47:48;;;;;;;2.87;2.63;;;;;;;;;;6130605;23;20168;-85
2022/05/16 04:50:19;;;;;;;2.10;2.00;;;;;;;;;;6130624;23;20176;-85
2022/05/16 04:52:47;;;;;;;4.50;2.90;;;;;;;;;;6155656;23;20299;-85
2022/05/16 04:55:16;;;;;;;3.83;2.37;;;;;;;;;;6156939;23;20178;-85
2022/05/16 04:57:45;;;;;;;2.43;2.23;;;;;;;;;;6130210;23;20207;-85
2022/05/16 05:00:17;;;;;;;2.13;1.90;;;;;;;;;;6156351;23;20172;-85
2022/05/16 05:02:46;;;;;;;2.53;2.10;;;;;;;;;;6130863;23;20186;-85
2022/05/16 05:05:16;;;;;;;3.53;2.70;;;;;;;;;;6130431;23;20214;-84
2022/05/16 05:07:46;;;;;;;0.47;0.47;;;;;;;;;;6130525;23;20172;-85
2022/05/16 05:15:51;;;;;;;7.77;3.10;;;;;;;;;;6130395;23;20176;-85
2022/05/16 05:18:21;;;;;;;1.53;1.27;;;;;;;;;;6130154;23;20194;-85
2022/05/16 05:20:49;;;;;;;1.87;1.33;;;;;;;;;;6130739;23;20176;-85
2022/05/16 05:23:18;;;;;;;3.37;0.90;;;;;;;;;;6130512;23;20188;-85
2022/05/16 05:25:47;;;;;;;1.30;1.20;;;;;;;;;;6130208;23;20176;-85
2022/05/16 05:28:15;;;;;;;2.47;1.70;;;;;;;;;;6155951;23;20168;-85
2022/05/16 05:30:44;;;;;;;4.80;2.43;;;;;;;;;;6130546;23;20183;-85
2022/05/16 05:33:12;;;;;;;5.53;2.07;;;;;;;;;;6130164;23;20183;-85
2022/05/16 05:35:42;;;;;;;2.33;1.60;;;;;;;;;;6144311;23;20247;-85
2022/05/16 05:38:10;;;;;;;2.80;2.37;;;;;;;;;;6154549;23;20198;-85
2022/05/16 05:40:39;;;;;;;1.23;1.23;;;;;;;;;;6155209;23;20182;-85
2022/05/16 05:43:09;;;;;;;3.87;3.43;;;;;;;;;;6155670;23;20183;-84
2022/05/16 05:45:37;;;;;;;5.00;2.37;;;;;;;;;;6154687;23;20176;-85
2022/05/16 05:48:06;;;;;;;4.70;2.63;;;;;;;;;;6154845;23;20180;-85
2022/05/16 05:50:35;;;;;;;5.37;4.20;;;;;;;;;;6179540;23;20182;-84
2022/05/16 05:53:05;;;;;;;2.07;1.93;;;;;;;;;;6154855;23;20179;-85
2022/05/16 05:55:33;;;;;;;4.47;3.30;;;;;;;;;;6156364;23;20191;-84
2022/05/16 05:58:02;;;;;;;4.37;2.33;;;;;;;;;;6154031;23;20187;-85
2022/05/16 06:00:30;;;;;;;5.50;2.93;;;;;;;;;;6154756;23;20173;-85
2022/05/16 06:03:00;;;;;;;9.37;3.20;;;;;;;;;;6154255;23;20180;-85
2022/05/16 06:05:29;;;;;;;2.03;1.83;;;;;;;;;;6154678;23;20177;-84
2022/05/16 06:07:57;;;;;;;3.50;2.17;;;;;;;;;;6179510;23;20176;-85
2022/05/16 06:10:27;;;;;;;1.93;1.80;;;;;;;;;;6154388;23;20187;-85
2022/05/16 06:12:56;;;;;;;1.97;1.77;;;;;;;;;;6154913;23;20183;-85
2022/05/16 06:15:25;;;;;;;8.77;3.37;;;;;;;;;;6179914;23;20179;-85
2022/05/16 06:17:53;;;;;;;5.67;2.37;;;;;;;;;;6156206;23;20179;-85
2022/05/16 06:20:22;;;;;;;2.37;2.27;;;;;;;;;;6154620;23;20184;-85
2022/05/16 06:22:50;;;;;;;6.47;3.00;;;;;;;;;;6154017;23;20210;-85
2022/05/16 06:25:32;;;;;;;1.00;0.97;;;;;;;;;;6155903;23;20174;-85
2022/05/16 06:28:03;;;;;;;10.13;3.83;;;;;;;;;;6154403;23;20171;-85
2022/05/16 06:30:32;;;;;;;3.00;2.67;;;;;;;;;;6179794;23;20182;-85
2022/05/16 06:33:00;;;;;;;8.03;3.00;;;;;;;;;;6154515;23;20271;-85
2022/05/16 06:35:29;;;;;;;4.23;2.00;;;;;;;;;;6154082;23;20211;-84
2022/05/16 06:37:57;;;;;;;4.87;3.07;;;;;;;;;;6153962;23;20179;-84
2022/05/16 06:40:26;;;;;;;1.30;1.23;;;;;;;;;;6154430;23;20181;-83
2022/05/16 06:42:54;;;;;;;1.20;1.10;;;;;;;;;;6154228;23;20197;-84
2022/05/16 06:45:27;;;;;;;6.43;4.60;;;;;;;;;;6156030;23;20206;-85
2022/05/16 06:47:56;;;;;;;4.70;4.13;;;;;;;;;;6154656;23;20204;-86
2022/05/16 06:50:25;;;;;;;1.83;1.53;;;;;;;;;;6179101;23;20174;-84
2022/05/16 06:52:53;;;;;;;8.13;4.60;;;;;;;;;;6154356;23;20210;-84
2022/05/16 06:55:31;;;;;;;8.00;3.43;;;;;;;;;;6154239;23;20179;-84
2022/05/16 06:58:20;;;;;;;11.57;4.73;;;;;;;;;;6153669;23;20183;-85
2022/05/16 07:01:08;;;;;;;4.77;3.70;;;;;;;;;;6154039;23;20182;-85
2022/05/16 07:12:31;;;;;;;;;;;;;;;;;;;;;
2022/05/16 07:59:53;;;;;;;2.03;1.93;;;;;;;;;;5623135;25;20425;-85
2022/05/16 08:06:43;;;;;;;0.30;0.30;;;;;;;;;;5712676;25;20199;-86
2022/05/16 11:33:32;;;;;;;11.70;6.77;;;;;;;;;;5688669;22;11523760;-85
2022/05/16 12:01:37;;;;;;;11.00;6.50;;;;;;;;;;6120398;23;20196;-87
2022/05/16 12:33:15;;;;;;;17.97;9.80;;;;;;;;;;5950308;24;20201;-87
2022/05/16 12:36:21;;;;;;;11.50;7.20;;;;;;;;;;6055991;23;20484;-88
2022/05/16 12:56:48;;;;;;;11.60;8.40;;;;;;;;;;6051686;23;20195;-83
2022/05/16 12:59:50;;;;;;;10.83;8.57;;;;;;;;;;6093384;23;20211;-84
2022/05/16 13:06:09;;;;;;;10.37;8.00;;;;;;;;;;6047335;23;20214;-83
2022/05/16 13:09:07;;;;;;;14.97;8.97;;;;;;;;;;6063903;23;20187;-83
2022/05/16 13:11:47;;;;;;;12.70;6.93;;;;;;;;;;6061609;23;20231;-84
2022/05/16 13:14:26;;;;;;;20.10;10.90;;;;;;;;;;6059011;23;20201;-84
2022/05/16 13:16:58;;;;;;;14.30;5.87;;;;;;;;;;6126956;23;20287;-85
2022/05/16 13:19:36;;;;;;;7.40;5.33;;;;;;;;;;6152611;23;20206;-86
2022/05/16 13:22:11;;;;;;;12.10;8.10;;;;;;;;;;6153507;23;20218;-86
2022/05/16 13:24:56;;;;;;;14.03;7.20;;;;;;;;;;6179175;23;20202;-86
2022/05/16 13:31:07;;;;;;;11.40;7.40;;;;;;;;;;6153733;23;20205;-86
2022/05/16 15:31:26;;;;;;;6.13;2.83;;;;;;;;;;5818530;24;20213;-87
2022/05/16 15:33:56;;;;;;;8.00;4.70;;;;;;;;;;5941216;23;20183;-86
2022/05/16 15:36:26;;;;;;;2.47;2.10;;;;;;;;;;6056151;23;20176;-87
2022/05/16 15:38:57;;;;;;;2.10;1.87;;;;;;;;;;6130294;23;20206;-87
2022/05/16 15:41:29;;;;;;;1.77;1.67;;;;;;;;;;6153635;23;20206;-86
2022/05/16 15:43:57;;;;;;;6.60;2.73;;;;;;;;;;6130624;23;20202;-86
2022/05/16 15:46:27;;;;;;;11.50;3.40;;;;;;;;;;6130474;23;20209;-87
2022/05/16 15:48:55;;;;;;;22.23;5.17;;;;;;;;;;6156096;23;20168;-87
2022/05/16 15:51:25;;;;;;;4.10;2.33;;;;;;;;;;6129097;23;20204;-87
2022/05/16 15:53:54;;;;;;;3.00;1.83;;;;;;;;;;6130457;23;20179;-87
2022/05/16 15:56:22;;;;;;;7.97;3.10;;;;;;;;;;6130378;23;20179;-87
2022/05/16 15:58:54;;;;;;;4.27;2.33;;;;;;;;;;6155079;23;20182;-87
2022/05/16 16:01:22;;;;;;;5.20;2.37;;;;;;;;;;6154649;23;20229;-87
2022/05/16 16:09:29;;;;;;;7.93;2.67;;;;;;;;;;6156219;23;20183;-87
2022/05/16 16:11:59;;;;;;;9.70;3.03;;;;;;;;;;6156397;23;20198;-87
2022/05/16 16:14:27;;;;;;;2.10;1.53;;;;;;;;;;6130441;23;20178;-87
2022/05/16 16:16:56;;;;;;;9.80;2.97;;;;;;;;;;6156282;23;20171;-86
2022/05/16 16:19:27;;;;;;;11.87;4.33;;;;;;;;;;6154732;23;20181;-84
2022/05/16 16:21:57;;;;;;;5.77;2.53;;;;;;;;;;6130422;23;20220;-87
2022/05/16 16:24:26;;;;;;;11.20;2.97;;;;;;;;;;6130371;23;20203;-87
2022/05/16 16:26:55;;;;;;;8.37;3.27;;;;;;;;;;6130584;23;20197;-87
2022/05/16 16:29:24;;;;;;;7.37;3.53;;;;;;;;;;6130306;23;20176;-87
2022/05/16 16:31:52;;;;;;;8.57;3.80;;;;;;;;;;6130373;23;20190;-87
2022/05/16 16:34:23;;;;;;;11.87;4.10;;;;;;;;;;6156419;23;20175;-87
2022/05/16 16:36:53;;;;;;;3.43;1.90;;;;;;;;;;6130144;23;20175;-87
2022/05/16 16:39:21;;;;;;;7.63;3.60;;;;;;;;;;6130113;23;20215;-87
2022/05/16 16:41:50;;;;;;;12.73;5.20;;;;;;;;;;6130048;23;20187;-87
2022/05/16 16:44:19;;;;;;;1.60;1.50;;;;;;;;;;6130191;23;20184;-87
2022/05/16 16:46:51;;;;;;;8.03;2.90;;;;;;;;;;6156185;23;20237;-87
2022/05/16 16:49:20;;;;;;;12.70;4.90;;;;;;;;;;6129961;23;20182;-87
2022/05/16 16:57:28;;;;;;;8.90;3.03;;;;;;;;;;6130125;23;20205;-87
2022/05/16 16:59:58;;;;;;;17.33;4.80;;;;;;;;;;6130494;23;20187;-87
2022/05/16 17:02:37;;;;;;;12.80;3.23;;;;;;;;;;6130102;23;20280;-87
2022/05/16 17:05:15;;;;;;;13.27;4.03;;;;;;;;;;6129717;23;20196;-87
2022/05/16 17:07:45;;;;;;;6.57;4.30;;;;;;;;;;6132749;23;20213;-87
2022/05/16 17:10:38;;;;;;;7.90;4.03;;;;;;;;;;6154269;23;20179;-85
2022/05/16 17:13:06;;;;;;;5.57;3.07;;;;;;;;;;6155790;23;20174;-85
2022/05/16 17:15:35;;;;;;;11.07;3.67;;;;;;;;;;6154411;23;20249;-85
2022/05/16 17:18:04;;;;;;;12.17;4.30;;;;;;;;;;6155600;23;20172;-85
2022/05/16 17:20:33;;;;;;;8.83;4.17;;;;;;;;;;6154571;23;20180;-86
2022/05/16 17:23:03;;;;;;;3.73;2.33;;;;;;;;;;6154661;23;20186;-85
2022/05/16 17:25:36;;;;;;;2.90;1.93;;;;;;;;;;6154490;23;20257;-85
2022/05/16 17:28:05;;;;;;;8.27;3.77;;;;;;;;;;6154073;23;20203;-85
2022/05/16 17:30:34;;;;;;;4.13;3.40;;;;;;;;;;6154565;23;20182;-85
2022/05/16 17:33:15;;;;;;;3.30;1.70;;;;;;;;;;6154390;23;20203;-85
2022/05/16 17:36:04;;;;;;;6.50;2.03;;;;;;;;;;6154299;23;20180;-85
2022/05/16 17:38:33;;;;;;;9.53;3.47;;;;;;;;;;6155618;23;20247;-85
2022/05/16 17:41:13;;;;;;;5.17;3.80;;;;;;;;;;6154212;23;20180;-85
2022/05/16 17:43:43;;;;;;;7.37;3.10;;;;;;;;;;6154058;23;20182;-85
2022/05/16 17:46:11;;;;;;;3.37;3.03;;;;;;;;;;6154348;23;20192;-85
2022/05/16 17:48:40;;;;;;;6.97;3.37;;;;;;;;;;6154174;23;20271;-85
2022/05/16 17:51:17;;;;;;;3.10;2.47;;;;;;;;;;6154043;23;20173;-85
2022/05/16 17:53:45;;;;;;;8.93;3.33;;;;;;;;;;6154496;23;20175;-85
2022/05/16 17:56:18;;;;;;;8.00;3.60;;;;;;;;;;6154065;23;20187;-85
2022/05/16 17:58:46;;;;;;;4.23;1.53;;;;;;;;;;6155462;23;20178;-85
2022/05/16 18:01:14;;;;;;;8.53;2.10;;;;;;;;;;6154134;23;20177;-86
2022/05/16 18:03:45;;;;;;;1.57;1.47;;;;;;;;;;6153739;23;20243;-85
2022/05/16 18:06:15;;;;;;;3.90;1.73;;;;;;;;;;6155431;23;20174;-85
2022/05/16 18:08:43;;;;;;;7.03;3.17;;;;;;;;;;6154089;23;20207;-85
2022/05/16 18:13:59;;;;;;;2.60;1.50;;;;;;;;;;6155325;23;20170;-85
2022/05/16 18:16:28;;;;;;;5.37;1.70;;;;;;;;;;6154236;23;20205;-85
2022/05/16 18:18:57;;;;;;;5.13;2.27;;;;;;;;;;6154211;23;20186;-85
2022/05/16 18:21:26;;;;;;;3.23;1.97;;;;;;;;;;6155187;23;20258;-85
2022/05/16 18:23:58;;;;;;;6.00;2.73;;;;;;;;;;6154063;23;20183;-85
2022/05/16 18:26:26;;;;;;;4.50;1.83;;;;;;;;;;6154343;23;20209;-85
2022/05/16 18:28:56;;;;;;;2.23;1.97;;;;;;;;;;6155635;23;20198;-85
2022/05/16 18:31:26;;;;;;;8.03;3.13;;;;;;;;;;6155050;23;20203;-85
2022/05/16 18:33:56;;;;;;;2.47;2.20;;;;;;;;;;6156234;23;20235;-85
2022/05/16 18:36:25;;;;;;;10.77;3.97;;;;;;;;;;6155311;23;20184;-85
2022/05/16 18:38:54;;;;;;;6.70;3.10;;;;;;;;;;6156168;23;20172;-85
2022/05/16 18:41:26;;;;;;;5.23;2.73;;;;;;;;;;6156254;23;20179;-85
2022/05/16 18:52:23;;;;;;;3.77;2.10;;;;;;;;;;6155915;23;20203;-85
2022/05/16 18:54:55;;;;;;;7.33;2.20;;;;;;;;;;6156140;23;20263;-85
2022/05/16 18:57:24;;;;;;;1.07;1.07;;;;;;;;;;6154811;23;20182;-85
2022/05/16 19:00:13;;;;;;;10.60;2.43;;;;;;;;;;6155631;23;20223;-85
2022/05/16 19:02:44;;;;;;;10.63;3.63;;;;;;;;;;6155615;23;20270;-85
2022/05/16 19:05:14;;;;;;;7.40;2.67;;;;;;;;;;6156721;23;20245;-86
2022/05/16 19:07:53;;;;;;;;;;;;;;;;;;;;;
2022/05/16 19:10:22;;;;;;;2.43;1.97;;;;;;;;;;6146070;23;20217;-85
2022/05/16 19:12:55;;;;;;;6.97;2.00;;;;;;;;;;6155868;23;20176;-85
2022/05/16 19:15:26;;;;;;;14.67;3.03;;;;;;;;;;6157241;23;20173;-85
2022/05/16 19:18:04;;;;;;;2.00;1.47;;;;;;;;;;6155203;23;20217;-85
2022/05/16 19:20:40;;;;;;;9.20;2.83;;;;;;;;;;6155495;23;20215;-85
2022/05/16 19:23:14;;;;;;;6.53;2.87;;;;;;;;;;6155434;23;20257;-85
2022/05/16 19:25:47;;;;;;;16.63;2.30;;;;;;;;;;6155808;23;20181;-85
2022/05/16 19:33:50;;;;;;;3.03;1.93;;;;;;;;;;6155439;23;20223;-85
2022/05/16 19:36:21;;;;;;;6.57;3.00;;;;;;;;;;6155591;23;20176;-85
2022/05/16 19:38:55;;;;;;;1.60;1.50;;;;;;;;;;6155250;23;20176;-85
2022/05/16 19:41:25;;;;;;;3.87;2.23;;;;;;;;;;6155270;23;20182;-85
2022/05/16 19:43:55;;;;;;;4.10;2.90;;;;;;;;;;6156841;23;20207;-86
2022/05/16 19:46:24;;;;;;;8.73;3.90;;;;;;;;;;6155625;23;20200;-85
2022/05/16 19:48:57;;;;;;;8.67;3.00;;;;;;;;;;6155496;23;20200;-86
2022/05/16 19:51:26;;;;;;;2.60;2.40;;;;;;;;;;6155402;23;20175;-85
2022/05/16 19:53:57;;;;;;;9.40;2.90;;;;;;;;;;6155315;23;20176;-86
2022/05/16 19:56:26;;;;;;;9.57;4.30;;;;;;;;;;6155434;23;20180;-86
2022/05/16 19:58:55;;;;;;;6.03;2.60;;;;;;;;;;6156191;23;20172;-86
2022/05/16 20:01:23;;;;;;;8.53;2.27;;;;;;;;;;6155364;23;20181;-85
2022/05/16 20:03:52;;;;;;;10.27;3.63;;;;;;;;;;6154904;23;20204;-85
2022/05/16 20:06:22;;;;;;;2.00;1.70;;;;;;;;;;6155068;23;20176;-85
2022/05/16 20:08:56;;;;;;;4.90;2.10;;;;;;;;;;6176734;23;20287;-86
2022/05/16 20:11:27;;;;;;;7.40;1.97;;;;;;;;;;6160028;23;20206;-85
2022/05/16 20:13:55;;;;;;;18.10;3.70;;;;;;;;;;6159490;23;20186;-85
2022/05/16 20:16:25;;;;;;;6.70;2.83;;;;;;;;;;6159756;23;20199;-86
2022/05/16 20:18:55;;;;;;;10.93;3.23;;;;;;;;;;6159807;23;20195;-86
2022/05/16 20:21:27;;;;;;;5.20;2.50;;;;;;;;;;6160050;23;20175;-85
2022/05/16 20:26:56;;;;;;;4.50;1.57;;;;;;;;;;6159715;23;20261;-86
2022/05/16 20:29:24;;;;;;;11.83;3.63;;;;;;;;;;6159943;23;20203;-86
2022/05/16 20:31:55;;;;;;;5.80;1.73;;;;;;;;;;6160140;23;20206;-86
2022/05/16 20:34:24;;;;;;;2.53;2.00;;;;;;;;;;6185978;23;20178;-86
2022/05/16 20:36:57;;;;;;;15.63;1.67;;;;;;;;;;6160393;23;20182;-85
2022/05/16 20:39:28;;;;;;;3.07;1.67;;;;;;;;;;6159831;23;20277;-85
2022/05/16 20:41:59;;;;;;;3.53;1.70;;;;;;;;;;6185827;23;20173;-86
2022/05/16 20:44:28;;;;;;;4.00;1.90;;;;;;;;;;6159502;23;20185;-85
2022/05/16 20:46:56;;;;;;;7.83;3.70;;;;;;;;;;6159836;23;20194;-86
2022/05/16 20:49:24;;;;;;;11.67;2.93;;;;;;;;;;6159108;23;20187;-86
2022/05/16 20:51:53;;;;;;;2.03;1.93;;;;;;;;;;6159320;23;20180;-85
2022/05/16 20:54:23;;;;;;;1.93;1.30;;;;;;;;;;6185832;23;20168;-85
2022/05/16 20:56:51;;;;;;;18.73;3.57;;;;;;;;;;6159628;23;20173;-85
2022/05/16 20:59:19;;;;;;;2.83;1.07;;;;;;;;;;6159307;23;20181;-86
2022/05/16 21:01:48;;;;;;;12.53;3.33;;;;;;;;;;6159695;23;20259;-86
2022/05/16 21:04:16;;;;;;;7.87;3.83;;;;;;;;;;6159864;23;20245;-85
2022/05/16 21:06:46;;;;;;;11.13;2.63;;;;;;;;;;6159280;23;20186;-86
2022/05/16 21:09:14;;;;;;;15.13;2.13;;;;;;;;;;6159459;23;20207;-86
2022/05/16 21:11:44;;;;;;;3.30;1.70;;;;;;;;;;6159584;23;20202;-86
2022/05/16 21:14:12;;;;;;;4.63;3.00;;;;;;;;;;6159693;23;20175;-86
2022/05/16 21:16:41;;;;;;;4.67;2.40;;;;;;;;;;6159128;23;20179;-86
2022/05/16 21:19:12;;;;;;;7.77;3.00;;;;;;;;;;6185473;23;20171;-86
2022/05/16 21:21:40;;;;;;;5.93;2.40;;;;;;;;;;6159183;23;20176;-86
2022/05/16 21:24:09;;;;;;;10.87;2.67;;;;;;;;;;6159583;23;20194;-86
2022/05/16 21:26:45;;;;;;;8.10;3.53;;;;;;;;;;6159604;23;20183;-86
2022/05/16 21:29:13;;;;;;;7.40;2.53;;;;;;;;;;6159219;23;20186;-86
2022/05/16 21:31:42;;;;;;;4.60;2.60;;;;;;;;;;6185399;23;20186;-85
2022/05/16 21:34:13;;;;;;;4.17;2.57;;;;;;;;;;6159664;23;20172;-86
2022/05/16 21:36:44;;;;;;;2.37;1.00;;;;;;;;;;6158536;23;20182;-86
2022/05/16 21:39:18;;;;;;;6.17;2.93;;;;;;;;;;6158717;23;20179;-86
2022/05/16 21:41:47;;;;;;;5.53;1.90;;;;;;;;;;6159557;23;20181;-86
2022/05/16 21:47:02;;;;;;;6.03;3.13;;;;;;;;;;6159475;23;20198;-86
2022/05/16 21:49:33;;;;;;;4.53;2.33;;;;;;;;;;6158755;23;20202;-86
2022/05/16 21:52:01;;;;;;;4.37;4.03;;;;;;;;;;6159271;23;20214;-86
2022/05/16 21:54:31;;;;;;;4.67;1.87;;;;;;;;;;6159147;23;20176;-86
2022/05/16 21:57:05;;;;;;;11.17;3.03;;;;;;;;;;6185309;23;20229;-86
2022/05/16 21:59:39;;;;;;;10.40;3.33;;;;;;;;;;6158887;23;20182;-86
2022/05/16 22:02:07;;;;;;;1.90;1.80;;;;;;;;;;6159436;23;20272;-86
2022/05/16 22:04:36;;;;;;;20.23;4.57;;;;;;;;;;6185012;23;20205;-86
2022/05/16 22:07:04;;;;;;;8.97;3.83;;;;;;;;;;6158917;23;20176;-86
2022/05/16 22:09:33;;;;;;;7.67;2.90;;;;;;;;;;6159015;23;20174;-86
2022/05/16 22:12:03;;;;;;;6.20;2.33;;;;;;;;;;6185037;23;20270;-86
2022/05/16 22:14:32;;;;;;;7.13;3.17;;;;;;;;;;6158867;23;20175;-86
2022/05/16 22:17:00;;;;;;;5.43;1.70;;;;;;;;;;6159497;23;20179;-86
2022/05/16 22:19:31;;;;;;;6.47;2.13;;;;;;;;;;6158981;23;20203;-85
2022/05/16 22:21:59;;;;;;;4.00;1.90;;;;;;;;;;6158946;23;20179;-86
2022/05/16 22:24:42;;;;;;;1.13;1.13;;;;;;;;;;6158912;23;20202;-86
2022/05/16 22:27:15;;;;;;;6.47;2.20;;;;;;;;;;6185843;23;20175;-87
2022/05/16 22:29:51;;;;;;;8.33;3.23;;;;;;;;;;6159020;23;20197;-87
2022/05/16 22:32:23;;;;;;;2.40;2.20;;;;;;;;;;6159091;23;20183;-87
2022/05/16 22:34:55;;;;;;;18.33;2.70;;;;;;;;;;6185478;23;20175;-87
2022/05/16 22:37:28;;;;;;;6.67;2.63;;;;;;;;;;6159017;23;20258;-87
2022/05/16 22:39:59;;;;;;;8.50;1.80;;;;;;;;;;6158923;23;20217;-87
2022/05/16 22:42:32;;;;;;;10.60;3.23;;;;;;;;;;6159228;23;20207;-87
2022/05/16 22:45:00;;;;;;;4.20;2.30;;;;;;;;;;6158947;23;20175;-87
2022/05/16 22:47:28;;;;;;;4.43;2.03;;;;;;;;;;6159565;23;20188;-87
2022/05/16 22:49:57;;;;;;;1.03;0.83;;;;;;;;;;6159092;23;20179;-87
2022/05/16 22:52:25;;;;;;;1.73;1.63;;;;;;;;;;6159283;23;20183;-86
2022/05/16 22:54:54;;;;;;;6.10;1.90;;;;;;;;;;6158957;23;20189;-87
2022/05/16 22:57:22;;;;;;;11.40;3.73;;;;;;;;;;6159405;23;20175;-87
2022/05/16 22:59:59;;;;;;;5.50;2.30;;;;;;;;;;6159078;23;20182;-87
2022/05/16 23:05:14;;;;;;;1.03;1.03;;;;;;;;;;6184838;23;20195;-87
2022/05/16 23:07:43;;;;;;;10.90;4.00;;;;;;;;;;6153781;23;20230;-87
2022/05/16 23:10:14;;;;;;;3.57;1.63;;;;;;;;;;6154301;23;20195;-87
2022/05/16 23:12:43;;;;;;;1.20;0.80;;;;;;;;;;6154005;23;20180;-87
2022/05/16 23:15:13;;;;;;;0.83;0.83;;;;;;;;;;6155861;23;20180;-87
2022/05/16 23:17:44;;;;;;;4.90;1.90;;;;;;;;;;6155514;23;20183;-88
2022/05/16 23:20:14;;;;;;;2.10;0.63;;;;;;;;;;6156370;23;20203;-87
2022/05/16 23:22:43;;;;;;;4.17;1.53;;;;;;;;;;6156661;23;20176;-87
2022/05/16 23:25:12;;;;;;;5.47;2.57;;;;;;;;;;6155264;23;20184;-87
2022/05/16 23:27:40;;;;;;;4.83;2.70;;;;;;;;;;6156015;23;20176;-87
2022/05/16 23:30:13;;;;;;;0.67;0.67;;;;;;;;;;6155807;23;20175;-87
2022/05/16 23:32:41;;;;;;;1.07;0.77;;;;;;;;;;6157215;23;20179;-87